GMFF

Saïss Airport

Fes, Morocco
METAR GMFF 152200Z 27004KT 220V300 CAVOK 22/15 Q1020 NOSIG
Observed Flight Rules
Aug-15 @ 22:00 UTC (27 minutes ago) Visual Flight Rules
Wind Visibility Clouds
270° at 4 knots 10,000+ meters
  • Clear skies
Temperatures Readings
Current 22°C / 72°F
Dewpoint 15°C / 59°F
Humidity 65%
Altimeter 30.12" Hg
Pressure 1020 hPa
Elevation 579
METAR GMFF 152200Z 27004KT 220V300 CAVOK 22/15 Q1020 NOSIG
Observed Flight Rules
Aug-15 @ 22:00 UTC
(27 minutes ago)
VFR
Wind Visibility
270° at 4 knots 10,000+ meters
Clouds
  • Clear skies
Temperature Dewpoint
22°C / 72°F 15°C / 59°F
Humidity Altimeter Pressure
65% 30.12" Hg 1020 hPa